createdAt,value
2019-03-26T00:01:51.019Z,14.83
2019-03-26T00:04:24.061Z,16.43
2019-03-26T00:06:56.087Z,14.00
2019-03-26T00:09:28.307Z,16.73
2019-03-26T00:12:00.148Z,16.90
2019-03-26T00:14:32.464Z,16.20
2019-03-26T00:17:04.406Z,16.60
2019-03-26T00:19:36.729Z,13.77
2019-03-26T00:22:09.082Z,12.00
2019-03-26T00:24:40.976Z,12.73
2019-03-26T00:27:13.181Z,19.30
2019-03-26T00:29:44.992Z,13.57
2019-03-26T00:32:17.292Z,16.73
2019-03-26T00:34:49.232Z,17.63
2019-03-26T00:37:21.121Z,18.40
2019-03-26T00:39:52.982Z,20.23
2019-03-26T00:42:25.233Z,13.40
2019-03-26T00:44:57.180Z,19.23
2019-03-26T00:47:29.403Z,15.60
2019-03-26T00:50:01.664Z,15.37
2019-03-26T00:52:33.532Z,17.80
2019-03-26T00:55:06.020Z,15.77
2019-03-26T00:57:37.962Z,16.23
2019-03-26T01:00:12.448Z,19.40
2019-03-26T01:02:44.460Z,19.87
2019-03-26T01:05:16.854Z,22.83
2019-03-26T01:07:48.924Z,20.10
2019-03-26T01:10:28.543Z,18.57
2019-03-26T01:13:00.512Z,15.47
2019-03-26T01:15:32.795Z,10.43
2019-03-26T01:18:04.652Z,15.00
2019-03-26T01:20:37.210Z,14.27
2019-03-26T01:23:09.213Z,17.90
2019-03-26T01:25:41.574Z,18.50
2019-03-26T01:28:13.473Z,20.00
2019-03-26T01:30:46.345Z,14.00
2019-03-26T01:33:18.231Z,16.00
2019-03-26T01:35:50.275Z,11.70
2019-03-26T01:38:22.101Z,13.60
2019-03-26T01:40:55.276Z,15.77
2019-03-26T01:43:27.291Z,13.10
2019-03-26T01:45:59.153Z,14.77
2019-03-26T01:48:31.003Z,10.37
2019-03-26T01:51:02.787Z,12.63
2019-03-26T01:53:34.699Z,17.20
2019-03-26T01:56:06.711Z,20.27
2019-03-26T01:58:39.076Z,14.20
2019-03-26T02:01:11.286Z,11.10
2019-03-26T02:03:43.441Z,12.83
2019-03-26T02:06:15.883Z,13.73
2019-03-26T02:08:47.695Z,15.53
2019-03-26T02:11:19.518Z,14.23
2019-03-26T02:13:52.075Z,15.60
2019-03-26T02:16:24.922Z,12.77
2019-03-26T02:18:56.761Z,15.23
2019-03-26T02:21:28.735Z,14.73
2019-03-26T02:24:00.656Z,14.63
2019-03-26T02:26:34.511Z,14.40
2019-03-26T02:29:07.438Z,13.17
2019-03-26T02:31:39.282Z,15.47
2019-03-26T02:34:11.175Z,9.53
2019-03-26T02:36:44.140Z,12.80
2019-03-26T02:39:16.128Z,14.57
2019-03-26T02:41:48.054Z,14.83
2019-03-26T02:44:21.239Z,12.43
2019-03-26T02:46:53.249Z,11.43
2019-03-26T02:49:25.750Z,11.53
2019-03-26T02:51:57.829Z,10.60
2019-03-26T02:54:29.809Z,12.27
2019-03-26T02:57:02.112Z,14.93
2019-03-26T02:59:34.036Z,11.40
2019-03-26T03:02:05.918Z,13.97
2019-03-26T03:04:37.914Z,10.10
2019-03-26T03:07:10.087Z,9.37
2019-03-26T03:09:41.931Z,10.30
2019-03-26T03:12:13.759Z,13.03
2019-03-26T03:14:45.661Z,9.67
2019-03-26T03:17:17.935Z,8.10
2019-03-26T03:19:50.565Z,13.50
2019-03-26T03:22:23.732Z,7.97
2019-03-26T03:24:55.979Z,9.30
2019-03-26T03:27:28.030Z,6.03
2019-03-26T03:29:59.984Z,13.33
2019-03-26T03:32:31.816Z,9.93
2019-03-26T03:35:04.139Z,9.23
2019-03-26T03:37:36.544Z,13.27
2019-03-26T03:40:08.615Z,9.53
2019-03-26T03:42:40.427Z,9.53
2019-03-26T03:45:13.171Z,11.33
2019-03-26T03:47:46.168Z,12.53
2019-03-26T03:50:18.064Z,11.53
2019-03-26T03:52:50.922Z,13.50
2019-03-26T03:55:22.787Z,11.33
2019-03-26T03:57:58.093Z,8.70
2019-03-26T04:00:41.065Z,9.83
2019-03-26T04:03:13.103Z,15.23
2019-03-26T04:05:45.503Z,9.90
2019-03-26T04:08:17.433Z,10.33
2019-03-26T04:10:49.193Z,9.07
2019-03-26T04:13:22.091Z,11.40
2019-03-26T04:15:54.321Z,11.50
2019-03-26T04:18:26.676Z,12.20
2019-03-26T04:20:58.467Z,13.27
2019-03-26T04:23:30.663Z,10.97
2019-03-26T04:26:02.495Z,12.10
2019-03-26T04:28:34.654Z,15.40
2019-03-26T04:31:06.580Z,9.53
2019-03-26T04:33:38.530Z,12.17
2019-03-26T04:36:24.591Z,8.40
2019-03-26T04:38:43.838Z,16.93
2019-03-26T04:41:15.791Z,11.97
2019-03-26T04:43:48.129Z,13.60
2019-03-26T04:46:20.001Z,11.93
2019-03-26T04:48:51.852Z,10.43
2019-03-26T04:51:23.755Z,10.50
2019-03-26T04:53:56.413Z,10.63
2019-03-26T04:56:28.473Z,9.20
2019-03-26T04:59:00.567Z,11.40
2019-03-26T05:01:32.795Z,12.03
2019-03-26T05:04:04.676Z,10.83
2019-03-26T05:06:38.216Z,10.20
2019-03-26T05:09:10.540Z,8.47
2019-03-26T05:11:42.780Z,12.03
2019-03-26T05:14:14.518Z,11.33
2019-03-26T05:16:46.454Z,10.57
2019-03-26T05:19:18.416Z,13.47
2019-03-26T05:21:50.722Z,11.30
2019-03-26T05:24:22.612Z,13.93
2019-03-26T05:26:54.432Z,13.67
2019-03-26T05:29:26.698Z,17.53
2019-03-26T05:32:00.468Z,19.13
2019-03-26T05:34:32.556Z,11.20
2019-03-26T05:37:06.010Z,13.67
2019-03-26T05:39:37.910Z,14.67
2019-03-26T05:42:09.952Z,12.83
2019-03-26T05:44:41.969Z,14.87
2019-03-26T05:47:20.590Z,8.60
2019-03-26T05:49:52.858Z,7.97
2019-03-26T05:52:25.151Z,12.97
2019-03-26T05:54:57.228Z,8.30
2019-03-26T05:57:29.034Z,7.13
2019-03-26T06:00:01.342Z,12.23
2019-03-26T06:02:34.330Z,8.87
2019-03-26T06:05:06.455Z,15.53
2019-03-26T06:07:38.815Z,13.30
2019-03-26T06:10:11.032Z,9.27
2019-03-26T06:12:46.395Z,11.10
2019-03-26T06:15:18.343Z,12.47
2019-03-26T06:17:50.195Z,11.87
2019-03-26T06:20:22.373Z,10.80
2019-03-26T06:22:55.062Z,8.83
2019-03-26T06:25:27.092Z,12.00
2019-03-26T06:27:59.035Z,11.27
2019-03-26T06:30:30.902Z,11.33
2019-03-26T06:33:03.109Z,9.73
2019-03-26T06:35:43.329Z,11.03
2019-03-26T06:38:17.232Z,17.33
2019-03-26T06:40:50.720Z,6.97
2019-03-26T06:43:26.464Z,13.70
2019-03-26T06:46:02.600Z,14.03
2019-03-26T06:48:36.631Z,13.27
2019-03-26T06:51:10.945Z,14.17
2019-03-26T06:53:44.223Z,9.50
2019-03-26T06:56:20.969Z,12.67
2019-03-26T06:58:54.370Z,8.60
2019-03-26T07:01:26.748Z,11.27
2019-03-26T07:03:58.982Z,11.37
2019-03-26T07:06:30.925Z,9.27
2019-03-26T07:09:02.902Z,12.57
2019-03-26T07:11:34.656Z,9.10
2019-03-26T07:14:07.544Z,12.17
2019-03-26T07:16:39.575Z,13.10
2019-03-26T07:19:11.507Z,9.57
2019-03-26T07:21:49.496Z,14.60
2019-03-26T07:24:17.049Z,11.77
2019-03-26T07:26:49.997Z,14.10
2019-03-26T07:29:22.141Z,14.63
2019-03-26T07:31:54.070Z,10.50
2019-03-26T07:34:26.364Z,16.43
2019-03-26T07:36:58.398Z,8.63
2019-03-26T07:39:30.858Z,11.67
2019-03-26T07:42:04.140Z,14.43
2019-03-26T07:44:36.068Z,12.43
2019-03-26T07:47:08.368Z,15.07
2019-03-26T07:49:40.625Z,14.20
2019-03-26T07:52:15.554Z,14.80
2019-03-26T07:54:46.845Z,10.27
2019-03-26T07:57:18.662Z,12.17
2019-03-26T07:59:50.532Z,11.73
2019-03-26T08:02:22.939Z,11.33
2019-03-26T08:04:55.263Z,15.73
2019-03-26T08:07:27.354Z,13.67
2019-03-26T08:09:59.442Z,15.57
2019-03-26T08:12:32.950Z,19.13
2019-03-26T08:15:05.566Z,13.50
2019-03-26T08:17:39.659Z,12.30
2019-03-26T08:20:13.184Z,7.63
2019-03-26T08:22:45.542Z,11.93
2019-03-26T08:25:17.417Z,11.63
2019-03-26T08:27:52.026Z,11.50
2019-03-26T08:30:24.786Z,10.90
2019-03-26T08:32:57.636Z,13.70
2019-03-26T08:35:30.140Z,11.00
2019-03-26T08:38:12.433Z,12.57
2019-03-26T08:40:36.329Z,10.23
2019-03-26T08:43:11.099Z,9.70
2019-03-26T08:45:57.042Z,15.83
2019-03-26T08:48:37.631Z,12.43
2019-03-26T08:51:11.334Z,8.80
2019-03-26T08:53:45.756Z,12.57
2019-03-26T08:56:19.002Z,8.70
2019-03-26T08:58:51.787Z,8.33
2019-03-26T09:01:25.236Z,10.50
2019-03-26T09:03:58.761Z,11.03
2019-03-26T09:06:32.685Z,13.17
2019-03-26T09:09:07.749Z,8.77
2019-03-26T09:11:41.870Z,9.20
2019-03-26T09:14:16.403Z,9.83
2019-03-26T09:16:50.167Z,10.70
2019-03-26T09:19:23.340Z,11.57
2019-03-26T09:21:57.042Z,14.73
2019-03-26T09:24:32.022Z,11.97
2019-03-26T09:27:05.770Z,11.13
2019-03-26T09:29:39.189Z,11.90
2019-03-26T09:32:13.533Z,13.70
2019-03-26T09:34:46.724Z,10.23
2019-03-26T09:37:19.986Z,15.30
2019-03-26T09:39:55.519Z,12.27
2019-03-26T09:42:29.344Z,12.03
2019-03-26T09:45:03.364Z,8.90
2019-03-26T09:47:37.801Z,9.10
2019-03-26T09:50:13.727Z,12.73
2019-03-26T09:52:47.534Z,13.80
2019-03-26T09:55:21.340Z,11.97
2019-03-26T09:57:54.807Z,8.73
2019-03-26T10:00:28.237Z,13.60
2019-03-26T10:03:02.325Z,14.53
2019-03-26T10:05:37.736Z,15.07
2019-03-26T10:08:12.264Z,11.87
2019-03-26T10:10:46.810Z,11.60
2019-03-26T10:13:21.445Z,11.23
2019-03-26T10:15:56.232Z,12.90
2019-03-26T10:18:29.527Z,9.27
2019-03-26T10:21:03.819Z,12.47
2019-03-26T10:23:39.217Z,11.63
2019-03-26T10:26:12.535Z,12.37
2019-03-26T10:28:45.761Z,11.90
2019-03-26T10:31:17.794Z,14.37
2019-03-26T10:33:51.664Z,11.80
2019-03-26T10:36:24.505Z,10.23
2019-03-26T10:39:05.406Z,9.07
2019-03-26T10:41:31.763Z,14.93
2019-03-26T10:44:03.791Z,12.43
2019-03-26T10:46:35.783Z,16.77
2019-03-26T10:49:09.257Z,10.67
2019-03-26T10:51:42.557Z,13.03
2019-03-26T10:54:14.769Z,12.57
2019-03-26T10:56:46.582Z,10.60
2019-03-26T10:59:18.805Z,14.73
2019-03-26T11:01:50.768Z,8.80
2019-03-26T11:04:22.874Z,12.03
2019-03-26T11:06:56.119Z,10.20
2019-03-26T11:09:28.080Z,11.50
2019-03-26T11:11:59.926Z,14.93
2019-03-26T11:14:32.047Z,13.53
2019-03-26T11:17:03.961Z,12.97
2019-03-26T11:19:36.027Z,13.13
2019-03-26T11:22:07.997Z,12.00
2019-03-26T11:24:40.348Z,10.03
2019-03-26T11:27:14.075Z,11.50
2019-03-26T11:29:47.048Z,11.03
2019-03-26T11:32:20.470Z,8.67
2019-03-26T11:34:53.916Z,12.20
2019-03-26T11:37:27.347Z,10.67
2019-03-26T11:40:01.296Z,12.40
2019-03-26T11:45:45.951Z,9.00
2019-03-26T11:48:19.406Z,12.37
2019-03-26T11:50:53.841Z,9.50
2019-03-26T11:53:27.762Z,8.47
2019-03-26T11:56:00.860Z,10.23
2019-03-26T11:58:35.458Z,7.67
2019-03-26T12:01:08.592Z,8.83
2019-03-26T12:03:42.759Z,7.87
2019-03-26T12:06:16.252Z,8.50
2019-03-26T12:08:49.526Z,11.67
2019-03-26T12:11:24.536Z,9.03
2019-03-26T12:13:58.226Z,10.00
2019-03-26T12:16:31.953Z,11.87
2019-03-26T12:19:05.646Z,11.03
2019-03-26T12:21:39.494Z,10.73
2019-03-26T12:24:14.216Z,8.77
2019-03-26T12:26:48.205Z,11.10
2019-03-26T12:29:21.594Z,12.33
2019-03-26T12:31:54.665Z,9.87
2019-03-26T12:34:29.861Z,9.30
2019-03-26T12:37:04.965Z,9.47
2019-03-26T12:39:39.205Z,10.53
2019-03-26T12:42:12.859Z,8.93
2019-03-26T12:44:46.601Z,12.00
2019-03-26T12:47:20.539Z,10.93
2019-03-26T12:49:54.956Z,10.67
2019-03-26T12:52:28.937Z,10.03
2019-03-26T12:55:01.164Z,13.43
2019-03-26T12:57:33.271Z,13.27
2019-03-26T13:00:06.062Z,11.70
2019-03-26T13:02:39.625Z,6.97
2019-03-26T13:05:11.808Z,12.30
2019-03-26T13:07:45.237Z,11.87
2019-03-26T13:10:17.600Z,10.83
2019-03-26T13:12:50.181Z,9.63
2019-03-26T13:15:22.345Z,12.67
2019-03-26T13:17:54.503Z,12.17
2019-03-26T13:20:26.632Z,10.03
2019-03-26T13:22:59.140Z,13.47
2019-03-26T13:25:31.204Z,10.57
2019-03-26T13:28:03.224Z,10.30
2019-03-26T13:30:35.206Z,13.30
2019-03-26T13:33:07.559Z,12.30
2019-03-26T13:35:39.599Z,11.30
2019-03-26T13:38:12.486Z,13.13
2019-03-26T13:40:45.812Z,15.30
2019-03-26T13:43:17.822Z,11.10
2019-03-26T13:45:50.144Z,14.67
2019-03-26T13:48:22.030Z,13.00
2019-03-26T13:50:53.970Z,11.67
2019-03-26T13:53:25.972Z,12.03
2019-03-26T13:55:57.823Z,12.73
2019-03-26T13:58:29.826Z,10.17
2019-03-26T14:01:01.754Z,11.47
2019-03-26T14:03:34.099Z,13.77
2019-03-26T14:06:05.920Z,12.67
2019-03-26T14:08:37.876Z,12.57
2019-03-26T14:11:09.852Z,11.83
2019-03-26T14:13:41.964Z,12.57
2019-03-26T14:16:14.343Z,14.10
2019-03-26T14:18:46.288Z,10.87
2019-03-26T14:21:18.086Z,14.17
2019-03-26T14:23:50.123Z,10.80
2019-03-26T14:26:22.085Z,9.83
2019-03-26T14:28:54.692Z,9.73
2019-03-26T14:31:26.507Z,11.77
2019-03-26T14:33:58.492Z,14.83
2019-03-26T14:36:32.428Z,9.60
2019-03-26T14:39:06.641Z,10.47
2019-03-26T14:41:39.191Z,12.97
2019-03-26T14:44:11.051Z,10.47
2019-03-26T14:46:42.883Z,9.40
2019-03-26T14:49:14.705Z,14.70
2019-03-26T14:51:47.016Z,9.67
2019-03-26T14:54:20.058Z,14.33
2019-03-26T14:56:52.158Z,12.17
2019-03-26T14:59:24.203Z,10.30
2019-03-26T15:01:56.147Z,11.43
2019-03-26T15:04:28.469Z,14.27
2019-03-26T15:07:00.854Z,15.33
2019-03-26T15:09:33.306Z,14.40
2019-03-26T15:12:05.203Z,11.70
2019-03-26T15:14:37.445Z,11.70
2019-03-26T15:17:10.643Z,16.33
2019-03-26T15:19:43.153Z,13.70
2019-03-26T15:22:15.312Z,14.83
2019-03-26T15:24:48.836Z,15.73
2019-03-26T15:27:21.021Z,15.97
2019-03-26T15:29:55.035Z,17.97
2019-03-26T15:32:27.976Z,17.00
2019-03-26T15:35:00.570Z,18.53
2019-03-26T15:37:32.440Z,18.07
2019-03-26T15:40:05.187Z,21.20
2019-03-26T15:42:39.933Z,17.57
2019-03-26T15:45:13.062Z,18.93
2019-03-26T15:47:44.943Z,18.67
2019-03-26T15:50:39.817Z,17.63
2019-03-26T15:53:11.808Z,18.67
2019-03-26T15:55:44.005Z,18.20
2019-03-26T15:58:16.404Z,14.47
2019-03-26T16:00:48.729Z,18.13
2019-03-26T16:03:22.580Z,14.97
2019-03-26T16:05:55.067Z,14.63
2019-03-26T16:08:28.819Z,16.40
2019-03-26T16:11:01.003Z,14.13
2019-03-26T16:13:35.727Z,13.17
2019-03-26T16:16:08.253Z,15.70
2019-03-26T16:18:40.381Z,18.87
2019-03-26T16:21:12.429Z,15.77
2019-03-26T16:23:44.691Z,15.93
2019-03-26T16:26:16.802Z,18.37
2019-03-26T16:28:48.818Z,15.03
2019-03-26T16:31:20.807Z,12.10
2019-03-26T16:33:53.213Z,16.20
2019-03-26T16:36:25.174Z,15.33
2019-03-26T16:38:57.115Z,12.50
2019-03-26T16:41:29.067Z,13.77
2019-03-26T16:44:01.302Z,11.03
2019-03-26T16:46:36.312Z,20.43
2019-03-26T16:49:07.154Z,16.00
2019-03-26T16:51:38.992Z,16.13
2019-03-26T16:54:11.390Z,15.13
2019-03-26T16:56:43.532Z,17.77
2019-03-26T16:59:16.852Z,17.70
2019-03-26T17:01:49.610Z,17.80
2019-03-26T17:04:21.569Z,17.83
2019-03-26T17:06:53.969Z,21.70
2019-03-26T17:09:27.167Z,16.93
2019-03-26T17:12:03.566Z,16.47
2019-03-26T17:14:32.533Z,17.23
2019-03-26T17:17:04.479Z,18.77
2019-03-26T17:19:36.511Z,19.33
2019-03-26T17:22:08.597Z,15.10
2019-03-26T17:24:40.548Z,16.00
2019-03-26T17:27:12.491Z,14.40
2019-03-26T17:29:44.361Z,20.60
2019-03-26T17:32:16.541Z,17.20
2019-03-26T17:34:48.660Z,19.37
2019-03-26T17:37:20.604Z,13.97
2019-03-26T17:39:52.505Z,19.97
2019-03-26T17:42:24.631Z,18.27
2019-03-26T17:44:58.336Z,20.10
2019-03-26T17:47:30.011Z,16.90
2019-03-26T17:50:03.214Z,12.97
2019-03-26T17:52:36.068Z,17.07
2019-03-26T17:55:09.097Z,18.57
2019-03-26T17:57:41.242Z,20.13
2019-03-26T18:00:19.132Z,17.47
2019-03-26T18:02:51.550Z,14.33
2019-03-26T18:05:28.252Z,17.97
2019-03-26T18:08:00.633Z,16.87
2019-03-26T18:10:33.224Z,15.10
2019-03-26T18:13:05.828Z,17.23
2019-03-26T18:15:38.364Z,20.00
2019-03-26T18:18:10.900Z,14.73
2019-03-26T18:20:42.934Z,16.90
2019-03-26T18:23:15.994Z,17.67
2019-03-26T18:25:48.342Z,17.00
2019-03-26T18:28:20.760Z,15.03
2019-03-26T18:30:52.699Z,19.23
2019-03-26T18:33:24.785Z,13.23
2019-03-26T18:35:56.739Z,17.00
2019-03-26T18:38:28.627Z,14.83
2019-03-26T18:41:00.858Z,11.40
2019-03-26T18:43:32.845Z,20.00
2019-03-26T18:46:05.031Z,17.47
2019-03-26T18:48:37.009Z,16.53
2019-03-26T18:51:08.885Z,15.57
2019-03-26T18:53:41.145Z,18.97
2019-03-26T18:56:12.936Z,18.10
2019-03-26T18:58:45.160Z,18.07
2019-03-26T19:01:17.508Z,18.03
2019-03-26T19:03:50.655Z,15.90
2019-03-26T19:06:23.882Z,13.57
2019-03-26T19:08:57.314Z,16.40
2019-03-26T19:11:31.565Z,11.10
2019-03-26T19:14:03.595Z,19.23
2019-03-26T19:16:35.675Z,16.47
2019-03-26T19:19:07.747Z,18.93
2019-03-26T19:21:41.835Z,15.43
2019-03-26T19:24:13.725Z,17.23
2019-03-26T19:26:46.219Z,15.67
2019-03-26T19:29:18.688Z,18.80
2019-03-26T19:31:52.125Z,16.90
2019-03-26T19:34:25.753Z,17.87
2019-03-26T19:36:59.960Z,18.30
2019-03-26T19:39:33.259Z,17.90
2019-03-26T19:42:05.323Z,15.37
2019-03-26T19:44:37.749Z,21.20
2019-03-26T19:47:09.653Z,16.67
2019-03-26T19:49:42.131Z,17.43
2019-03-26T19:52:14.009Z,14.70
2019-03-26T19:54:47.303Z,16.80
2019-03-26T19:57:19.285Z,17.90
2019-03-26T19:59:51.513Z,14.93
2019-03-26T20:02:23.389Z,16.23
2019-03-26T20:04:57.383Z,19.33
2019-03-26T20:07:29.249Z,16.43
2019-03-26T20:10:01.146Z,16.30
2019-03-26T20:12:34.854Z,16.43
2019-03-26T20:15:07.813Z,15.73
2019-03-26T20:17:39.732Z,15.67
2019-03-26T20:20:12.744Z,14.27
2019-03-26T20:22:44.762Z,18.03
2019-03-26T20:25:16.980Z,16.53
2019-03-26T20:27:49.948Z,17.53
2019-03-26T20:30:23.921Z,17.00
2019-03-26T20:33:00.249Z,19.90
2019-03-26T20:35:34.643Z,16.43
2019-03-26T20:38:09.666Z,14.87
2019-03-26T20:40:41.811Z,16.07
2019-03-26T20:43:13.716Z,18.17
2019-03-26T20:45:45.668Z,20.73
2019-03-26T20:48:18.632Z,16.43
2019-03-26T20:50:51.643Z,28.27
2019-03-26T20:53:23.979Z,19.07
2019-03-26T20:55:59.427Z,18.47
2019-03-26T20:58:31.540Z,20.97
2019-03-26T21:01:03.841Z,14.67
2019-03-26T21:03:35.826Z,13.63
2019-03-26T21:06:09.296Z,12.63
2019-03-26T21:08:44.158Z,12.53
2019-03-26T21:11:16.205Z,11.27
2019-03-26T21:13:50.956Z,15.23
2019-03-26T21:16:22.058Z,10.63
2019-03-26T21:18:53.958Z,13.53
2019-03-26T21:21:26.005Z,18.43
2019-03-26T21:24:03.574Z,15.20
2019-03-26T21:26:36.020Z,11.90
2019-03-26T21:29:08.230Z,14.87
2019-03-26T21:31:40.788Z,17.43
2019-03-26T21:34:13.195Z,15.93
2019-03-26T21:36:45.043Z,20.80
2019-03-26T21:39:17.573Z,18.73
2019-03-26T21:41:50.436Z,14.43
2019-03-26T21:44:22.289Z,12.77
2019-03-26T21:46:55.838Z,13.00
2019-03-26T21:49:27.744Z,17.43
2019-03-26T21:51:59.903Z,19.63
2019-03-26T21:54:31.808Z,17.43
2019-03-26T21:57:04.380Z,18.00
2019-03-26T21:59:36.609Z,19.67
2019-03-26T22:02:08.485Z,19.23
2019-03-26T22:04:41.423Z,20.30
2019-03-26T22:07:13.461Z,12.37
2019-03-26T22:09:45.691Z,19.67
2019-03-26T22:12:20.768Z,20.80
2019-03-26T22:14:51.481Z,17.40
2019-03-26T22:17:23.712Z,18.03
2019-03-26T22:19:55.563Z,14.23
2019-03-26T22:22:27.385Z,20.57
2019-03-26T22:24:59.521Z,22.73
2019-03-26T22:27:31.413Z,22.10
2019-03-26T22:30:03.682Z,15.87
2019-03-26T22:32:35.673Z,17.20
2019-03-26T22:35:08.726Z,17.17
2019-03-26T22:37:41.306Z,17.63
2019-03-26T22:40:13.348Z,21.20
2019-03-26T22:42:45.933Z,20.67
2019-03-26T22:45:18.686Z,20.53
2019-03-26T22:47:50.612Z,16.77
2019-03-26T22:50:22.471Z,19.27
2019-03-26T22:52:54.761Z,17.83
2019-03-26T22:55:27.033Z,20.10
2019-03-26T22:57:59.199Z,16.53
2019-03-26T23:00:35.564Z,15.13
2019-03-26T23:03:08.916Z,22.77
2019-03-26T23:05:41.268Z,20.37
2019-03-26T23:08:13.506Z,18.17
2019-03-26T23:10:45.451Z,16.67
2019-03-26T23:13:18.462Z,19.33
2019-03-26T23:15:52.003Z,15.03
2019-03-26T23:18:24.309Z,18.47
2019-03-26T23:20:56.282Z,21.43
2019-03-26T23:23:28.337Z,16.27
2019-03-26T23:26:00.358Z,17.13
2019-03-26T23:28:32.949Z,18.40
2019-03-26T23:31:04.749Z,18.73
2019-03-26T23:33:37.361Z,19.43
2019-03-26T23:36:09.616Z,19.03
2019-03-26T23:38:41.579Z,18.13
2019-03-26T23:41:13.386Z,20.17
2019-03-26T23:43:45.434Z,19.53
2019-03-26T23:46:17.426Z,17.17
2019-03-26T23:48:49.375Z,16.47
2019-03-26T23:51:21.406Z,16.73
2019-03-26T23:53:53.302Z,17.23
2019-03-26T23:56:25.267Z,19.67
2019-03-26T23:58:57.283Z,17.63
